Time;durP1;ratioP1;P1;durP2;ratioP2;P2;SDS_P1;SDS_P2;PMS_P1;PMS_P2;Temp;Humidity;BMP_temperature;BMP_pressure;BME280_temperature;BME280_humidity;BME280_pressure;Samples;Min_cycle;Max_cycle;Signal;HPM_P1;HPM_P2
2023/04/26 00:01:28;;;;;;;1999.90;999.90;;;5.20;99.90;;;;;;4975773;28;20190;-77
2023/04/26 00:03:55;;;;;;;1999.90;999.90;;;5.20;99.90;;;;;;4975979;28;20535;-77
2023/04/26 00:06:20;;;;;;;1999.90;999.90;;;6.90;99.90;;;;;;4975920;28;20502;-76
2023/04/26 00:08:46;;;;;;;1999.90;999.90;;;5.00;99.90;;;;;;4974983;28;20844;-77
2023/04/26 00:11:12;;;;;;;1999.90;999.90;;;4.90;99.90;;;;;;4976893;28;20186;-75
2023/04/26 00:13:37;;;;;;;1999.90;999.90;;;4.80;99.90;;;;;;4978691;28;20175;-76
2023/04/26 00:16:04;;;;;;;1999.90;999.90;;;4.70;99.90;;;;;;4978538;28;20433;-77
2023/04/26 00:18:30;;;;;;;1999.90;999.90;;;4.70;99.90;;;;;;4977653;28;20171;-75
2023/04/26 00:20:56;;;;;;;1999.90;999.90;;;4.60;99.90;;;;;;4977503;28;20813;-76
2023/04/26 00:23:22;;;;;;;1999.90;999.90;;;4.60;99.90;;;;;;4977500;28;20253;-76
2023/04/26 00:25:47;;;;;;;1999.90;999.90;;;4.60;99.90;;;;;;4977897;28;20493;-77
2023/04/26 00:28:13;;;;;;;1999.90;999.90;;;4.60;99.90;;;;;;4977669;28;20178;-76
2023/04/26 00:30:46;;;;;;;1999.90;999.90;;;4.60;99.90;;;;;;4977487;28;20210;-76
2023/04/26 00:33:11;;;;;;;1999.90;999.90;;;4.60;99.90;;;;;;4978078;28;20169;-76
2023/04/26 00:35:37;;;;;;;1999.90;999.90;;;4.60;99.90;;;;;;4977430;28;20401;-76
2023/04/26 00:38:02;;;;;;;1999.90;999.90;;;4.60;99.90;;;;;;4977612;28;20170;-75
2023/04/26 00:40:30;;;;;;;1999.90;999.90;;;4.60;99.90;;;;;;4977796;28;20194;-76
2023/04/26 00:42:59;;;;;;;1999.90;999.90;;;4.60;99.90;;;;;;4977405;28;20656;-77
2023/04/26 00:45:25;;;;;;;1999.90;999.90;;;4.70;99.90;;;;;;4978021;28;20943;-77
2023/04/26 00:47:51;;;;;;;1999.90;999.90;;;4.70;99.90;;;;;;4977657;28;20764;-76
2023/04/26 00:50:18;;;;;;;1999.90;999.90;;;4.70;99.90;;;;;;4977249;28;20512;-76
2023/04/26 00:52:45;;;;;;;1999.90;999.90;;;4.60;99.90;;;;;;4977442;28;20402;-76
2023/04/26 00:55:12;;;;;;;1999.90;999.90;;;4.50;99.90;;;;;;4977270;28;20504;-75
2023/04/26 00:57:38;;;;;;;1999.90;999.90;;;4.50;99.90;;;;;;4977042;28;20985;-76
2023/04/26 01:00:05;;;;;;;1999.90;999.90;;;4.40;99.90;;;;;;4976834;28;20476;-76
2023/04/26 01:02:31;;;;;;;1999.90;999.90;;;4.40;99.90;;;;;;4976924;28;20418;-76
2023/04/26 01:04:56;;;;;;;1999.90;999.90;;;4.40;99.90;;;;;;4977265;28;20450;-76
2023/04/26 01:07:22;;;;;;;1999.90;999.90;;;4.30;99.90;;;;;;4976872;28;20166;-75
2023/04/26 01:09:48;;;;;;;1999.90;999.90;;;4.20;99.90;;;;;;4976567;28;20213;-76
2023/04/26 01:12:14;;;;;;;1999.90;999.90;;;4.20;99.90;;;;;;4976608;28;20409;-76
2023/04/26 01:14:39;;;;;;;1999.90;999.90;;;4.20;99.90;;;;;;4976650;28;20443;-76
2023/04/26 01:17:05;;;;;;;1999.90;999.90;;;4.30;99.90;;;;;;4976969;28;20296;-77
2023/04/26 01:19:31;;;;;;;1999.90;999.90;;;4.30;99.90;;;;;;4976852;28;20178;-76
2023/04/26 01:21:57;;;;;;;1999.90;999.90;;;4.40;99.90;;;;;;4976657;28;20680;-76
2023/04/26 01:24:22;;;;;;;1999.90;999.90;;;5.20;99.90;;;;;;4976716;28;20800;-77
2023/04/26 01:26:48;;;;;;;1999.90;999.90;;;4.50;99.90;;;;;;4975960;28;20656;-75
2023/04/26 01:29:19;;;;;;;1999.90;999.90;;;4.50;99.90;;;;;;4976724;28;20225;-76
2023/04/26 01:31:45;;;;;;;1999.90;999.90;;;4.50;99.90;;;;;;4976314;28;20452;-77
2023/04/26 01:34:11;;;;;;;1999.90;999.90;;;4.50;99.90;;;;;;4976750;28;20485;-76
2023/04/26 01:36:37;;;;;;;1999.90;999.90;;;4.40;99.90;;;;;;4976479;28;20437;-77
2023/04/26 01:39:03;;;;;;;1999.90;999.90;;;4.40;99.90;;;;;;4976915;28;20201;-76
2023/04/26 01:41:29;;;;;;;1999.90;999.90;;;4.40;99.90;;;;;;4976332;28;20581;-76
2023/04/26 01:43:54;;;;;;;1999.90;999.90;;;4.40;99.90;;;;;;4976825;28;20505;-76
2023/04/26 01:46:20;;;;;;;1999.90;999.90;;;4.30;99.90;;;;;;4976448;28;20425;-76
2023/04/26 01:48:46;;;;;;;1999.90;999.90;;;4.40;99.90;;;;;;4976331;28;20182;-76
2023/04/26 01:51:12;;;;;;;1999.90;999.90;;;4.40;99.90;;;;;;4976566;28;20457;-76
2023/04/26 01:53:37;;;;;;;1999.90;999.90;;;4.40;99.90;;;;;;4973837;28;20225;-77
2023/04/26 01:56:04;;;;;;;1999.90;999.90;;;4.40;99.90;;;;;;4973706;28;20505;-76
2023/04/26 01:58:30;;;;;;;1999.90;999.90;;;4.30;99.90;;;;;;4974446;28;20178;-76
2023/04/26 02:01:03;;;;;;;1999.90;999.90;;;4.30;99.90;;;;;;4973560;28;20958;-76
2023/04/26 02:03:29;;;;;;;1999.90;999.90;;;4.30;99.90;;;;;;4973683;28;20548;-77
2023/04/26 02:05:54;;;;;;;1999.90;999.90;;;4.30;99.90;;;;;;4973557;28;20461;-77
2023/04/26 02:08:20;;;;;;;1999.90;999.90;;;4.20;99.90;;;;;;4973593;28;20178;-77
2023/04/26 02:10:45;;;;;;;1999.90;999.90;;;4.20;99.90;;;;;;4973458;28;20711;-77
2023/04/26 02:13:11;;;;;;;1999.90;999.90;;;4.20;99.90;;;;;;5004314;23;20230;-72
2023/04/26 02:15:37;;;;;;;1999.90;999.90;;;4.10;99.90;;;;;;4954325;29;20546;-73
2023/04/26 02:18:02;;;;;;;1999.90;999.90;;;4.00;99.90;;;;;;4954183;29;20656;-72
2023/04/26 02:20:28;;;;;;;1999.90;999.90;;;4.00;99.90;;;;;;4954400;29;20181;-75
2023/04/26 02:22:53;;;;;;;1999.90;999.90;;;4.00;99.90;;;;;;4953929;28;20266;-72
2023/04/26 02:25:20;;;;;;;1999.90;999.90;;;3.90;99.90;;;;;;4954111;29;20203;-73
2023/04/26 02:27:45;;;;;;;1999.90;999.90;;;3.90;99.90;;;;;;4954154;29;20174;-73
2023/04/26 02:30:11;;;;;;;1999.90;999.90;;;3.90;99.90;;;;;;4954146;29;20924;-75
2023/04/26 02:32:37;;;;;;;1999.90;999.90;;;3.90;99.90;;;;;;4953602;28;20183;-73
2023/04/26 02:35:04;;;;;;;1999.90;999.90;;;3.90;99.90;;;;;;4954055;29;20437;-74
2023/04/26 02:37:31;;;;;;;1999.90;999.90;;;3.90;99.90;;;;;;4954230;29;20563;-73
2023/04/26 02:39:56;;;;;;;1999.90;999.90;;;3.80;99.90;;;;;;4954017;29;20412;-72
2023/04/26 02:42:22;;;;;;;1999.90;999.90;;;3.80;99.90;;;;;;4953660;28;20438;-73
2023/04/26 02:44:47;;;;;;;1999.90;999.90;;;3.70;99.90;;;;;;4954071;29;20195;-72
2023/04/26 02:47:13;;;;;;;1999.90;999.90;;;3.60;99.90;;;;;;4954806;29;20178;-73
2023/04/26 02:49:38;;;;;;;1999.90;999.90;;;3.60;99.90;;;;;;4954179;29;20264;-72
2023/04/26 02:52:04;;;;;;;1999.90;999.90;;;3.20;99.90;;;;;;4953546;28;20179;-74
2023/04/26 02:54:30;;;;;;;1999.90;999.90;;;3.40;99.90;;;;;;4954036;29;20175;-72
2023/04/26 02:56:56;;;;;;;1999.90;999.90;;;3.40;99.90;;;;;;4953810;29;20186;-73
2023/04/26 02:59:22;;;;;;;1999.90;999.90;;;3.40;99.90;;;;;;4953820;29;20163;-73
2023/04/26 03:01:48;;;;;;;1999.90;999.90;;;3.40;99.90;;;;;;4953617;29;20928;-73
2023/04/26 03:04:14;;;;;;;1999.90;999.90;;;3.40;99.90;;;;;;4953704;28;20187;-72
2023/04/26 03:06:40;;;;;;;1999.90;999.90;;;3.40;99.90;;;;;;4954044;29;20163;-74
2023/04/26 03:09:06;;;;;;;1999.90;999.90;;;3.40;99.90;;;;;;4953831;29;20908;-74
2023/04/26 03:11:31;;;;;;;1999.90;999.90;;;3.70;99.90;;;;;;4953624;29;20246;-74
2023/04/26 03:13:57;;;;;;;1999.90;999.90;;;3.40;99.90;;;;;;4953510;28;20214;-74
2023/04/26 03:16:23;;;;;;;1999.90;999.90;;;3.40;99.90;;;;;;4953737;29;20665;-72
2023/04/26 03:18:49;;;;;;;1999.90;999.90;;;3.40;99.90;;;;;;4953724;29;20167;-73
2023/04/26 03:21:14;;;;;;;1999.90;999.90;;;3.40;99.90;;;;;;4953337;29;20258;-74
2023/04/26 03:23:40;;;;;;;1999.90;999.90;;;3.40;99.90;;;;;;4953538;28;20521;-72
2023/04/26 03:26:06;;;;;;;1999.90;999.90;;;3.40;99.90;;;;;;4953542;29;20266;-73
2023/04/26 03:28:31;;;;;;;1999.90;999.90;;;3.40;99.90;;;;;;4953609;29;20171;-74
2023/04/26 03:30:57;;;;;;;1999.90;999.90;;;3.40;99.90;;;;;;4953715;29;20163;-73
2023/04/26 03:33:22;;;;;;;1999.90;999.90;;;3.40;99.90;;;;;;4954104;28;20342;-72
2023/04/26 03:35:48;;;;;;;1999.90;999.90;;;3.30;99.90;;;;;;4953854;29;20186;-73
2023/04/26 03:38:14;;;;;;;1999.90;999.90;;;4.40;99.90;;;;;;4954051;29;20175;-73
2023/04/26 03:40:40;;;;;;;1999.90;999.90;;;3.20;99.90;;;;;;4953945;29;20671;-74
2023/04/26 03:43:05;;;;;;;1999.90;999.90;;;3.20;99.90;;;;;;4953151;28;20441;-72
2023/04/26 03:45:31;;;;;;;1999.90;999.90;;;3.20;99.90;;;;;;4956738;29;20777;-73
2023/04/26 03:47:56;;;;;;;1999.90;999.90;;;3.20;99.90;;;;;;4957045;29;20539;-72
2023/04/26 03:50:22;;;;;;;1999.90;999.90;;;3.20;99.90;;;;;;4956895;29;20210;-72
2023/04/26 03:52:48;;;;;;;1999.90;999.90;;;3.20;99.90;;;;;;4956390;28;20198;-74
2023/04/26 03:55:13;;;;;;;1999.90;999.90;;;3.10;99.90;;;;;;4956715;29;20202;-72
2023/04/26 03:57:39;;;;;;;1999.90;999.90;;;3.30;99.90;;;;;;4939590;29;20721;-73
2023/04/26 04:00:08;;;;;;;1999.90;999.90;;;3.10;99.90;;;;;;4956611;29;20174;-73
2023/04/26 04:02:34;;;;;;;1999.90;999.90;;;3.10;99.90;;;;;;4956353;28;20242;-74
2023/04/26 04:05:00;;;;;;;1999.90;999.90;;;5.20;99.90;;;;;;4956626;29;20454;-73
2023/04/26 04:07:25;;;;;;;1999.90;999.90;;;3.00;99.90;;;;;;4956462;29;20403;-72
2023/04/26 04:09:51;;;;;;;1999.90;999.90;;;3.00;99.90;;;;;;4956485;29;20178;-74
2023/04/26 04:12:17;;;;;;;1999.90;999.90;;;3.90;99.90;;;;;;4956272;28;20702;-74
2023/04/26 04:14:42;;;;;;;1999.90;999.90;;;2.90;99.90;;;;;;4939285;29;20551;-72
2023/04/26 04:17:08;;;;;;;1999.90;999.90;;;2.80;99.90;;;;;;4956371;29;20258;-74
2023/04/26 04:19:33;;;;;;;1999.90;999.90;;;2.80;99.90;;;;;;4956416;29;20597;-72
2023/04/26 04:21:59;;;;;;;1999.90;999.90;;;2.80;99.90;;;;;;4955920;28;20178;-72
2023/04/26 04:24:25;;;;;;;1999.90;999.90;;;2.70;99.90;;;;;;4956165;29;20191;-74
2023/04/26 04:26:51;;;;;;;1999.90;999.90;;;2.90;99.90;;;;;;4956198;29;20407;-72
2023/04/26 04:29:16;;;;;;;1999.90;999.90;;;2.70;99.90;;;;;;4956092;29;20652;-73
2023/04/26 04:31:42;;;;;;;1999.90;999.90;;;2.70;99.90;;;;;;4955872;29;20415;-72
2023/04/26 04:34:08;;;;;;;1999.90;999.90;;;2.70;99.90;;;;;;4956247;28;20222;-72
2023/04/26 04:36:33;;;;;;;1999.90;999.90;;;2.90;99.90;;;;;;4955897;29;20225;-73
2023/04/26 04:38:59;;;;;;;1999.90;999.90;;;2.90;99.90;;;;;;4955959;29;20168;-74
2023/04/26 04:41:24;;;;;;;1999.90;999.90;;;2.90;99.90;;;;;;4955609;29;20822;-72
2023/04/26 04:43:50;;;;;;;1999.90;999.90;;;2.90;99.90;;;;;;4955872;28;20672;-73
2023/04/26 04:46:16;;;;;;;1999.90;999.90;;;2.90;99.90;;;;;;4955912;29;20627;-74
2023/04/26 04:48:42;;;;;;;1999.90;999.90;;;2.90;99.90;;;;;;4956398;29;20247;-73
2023/04/26 04:51:07;;;;;;;1999.90;999.90;;;3.00;99.90;;;;;;4956749;29;20164;-73
2023/04/26 04:53:33;;;;;;;1999.90;999.90;;;3.00;99.90;;;;;;4939816;29;20293;-75
2023/04/26 04:55:59;;;;;;;1999.90;999.90;;;3.00;99.90;;;;;;4956249;28;20175;-74
2023/04/26 04:58:25;;;;;;;1999.90;999.90;;;3.20;99.90;;;;;;4939852;29;20668;-74
2023/04/26 05:00:53;;;;;;;1999.90;999.90;;;3.10;99.90;;;;;;4955598;29;20407;-75
2023/04/26 05:03:18;;;;;;;1999.90;999.90;;;3.20;99.90;;;;;;4955644;28;20194;-74
2023/04/26 05:05:44;;;;;;;1999.90;999.90;;;3.10;99.90;;;;;;4955564;29;20451;-72
2023/04/26 05:08:10;;;;;;;1999.90;999.90;;;3.20;99.90;;;;;;4955468;29;20167;-73
2023/04/26 05:10:36;;;;;;;1999.90;999.90;;;3.20;99.90;;;;;;4955811;29;20171;-74
2023/04/26 05:13:01;;;;;;;1999.90;999.90;;;3.20;99.90;;;;;;4955033;28;21044;-73
2023/04/26 05:15:27;;;;;;;1999.90;999.90;;;3.30;99.90;;;;;;4955272;29;20278;-71
2023/04/26 05:17:54;;;;;;;1999.90;999.90;;;3.40;99.90;;;;;;4955806;29;20645;-74
2023/04/26 05:20:20;;;;;;;1999.90;999.90;;;3.50;99.90;;;;;;4955368;29;20178;-74
2023/04/26 05:22:46;;;;;;;1999.90;999.90;;;3.80;99.90;;;;;;4954900;28;20430;-72
2023/04/26 05:25:12;;;;;;;1999.90;999.90;;;3.70;99.90;;;;;;4955031;29;20821;-73
2023/04/26 05:27:38;;;;;;;1999.90;999.90;;;3.90;99.90;;;;;;4955069;29;20798;-73
2023/04/26 05:30:05;;;;;;;1999.90;999.90;;;4.00;99.90;;;;;;4955088;29;20399;-73
2023/04/26 05:32:31;;;;;;;1999.90;999.90;;;4.10;99.90;;;;;;4955055;28;20603;-75
2023/04/26 05:34:57;;;;;;;1999.90;999.90;;;4.20;99.90;;;;;;4955900;29;20402;-72
2023/04/26 05:37:22;;;;;;;1999.90;999.90;;;4.20;99.90;;;;;;4954876;29;20202;-72
2023/04/26 05:39:48;;;;;;;1999.90;999.90;;;4.30;99.90;;;;;;4954754;29;20410;-72
2023/04/26 05:42:13;;;;;;;1999.90;999.90;;;4.30;99.90;;;;;;4954886;28;20278;-72
2023/04/26 05:44:39;;;;;;;1999.90;999.90;;;6.20;99.90;;;;;;4954551;29;20334;-72
2023/04/26 05:47:05;;;;;;;1999.90;999.90;;;4.50;99.90;;;;;;4954972;29;20163;-74
2023/04/26 05:49:31;;;;;;;1999.90;999.90;;;4.60;99.90;;;;;;4954646;29;20190;-74
2023/04/26 05:51:59;;;;;;;1999.90;999.90;;;4.60;99.90;;;;;;4954495;28;20411;-73
2023/04/26 05:54:25;;;;;;;1999.90;999.90;;;4.60;99.90;;;;;;4954952;29;20644;-72
2023/04/26 05:56:51;;;;;;;1999.90;999.90;;;4.80;99.90;;;;;;4956015;29;20426;-75
2023/04/26 05:59:16;;;;;;;1999.90;999.90;;;4.90;99.90;;;;;;4955198;29;20418;-73
2023/04/26 06:01:42;;;;;;;1999.90;999.90;;;5.00;99.90;;;;;;4954652;29;20442;-74
2023/04/26 06:04:08;;;;;;;1999.90;999.90;;;5.10;99.90;;;;;;4954023;28;20199;-74
2023/04/26 06:06:33;;;;;;;1999.90;999.90;;;5.10;99.90;;;;;;4953742;28;20178;-74
2023/04/26 06:08:59;;;;;;;1999.90;999.90;;;5.10;99.90;;;;;;4937929;29;20274;-75
2023/04/26 06:11:25;;;;;;;1999.90;999.90;;;5.30;99.90;;;;;;4955991;29;20274;-74
2023/04/26 06:13:51;;;;;;;1999.90;999.90;;;5.40;99.90;;;;;;4954040;28;20346;-72
2023/04/26 06:16:16;;;;;;;1999.90;999.90;;;5.50;99.90;;;;;;4955635;29;20442;-73
2023/04/26 06:18:42;;;;;;;1999.90;999.90;;;5.60;99.90;;;;;;4954399;29;20633;-72
2023/04/26 06:21:08;;;;;;;1999.90;999.90;;;5.60;99.90;;;;;;4953944;29;20175;-74
2023/04/26 06:23:33;;;;;;;1999.90;999.90;;;5.80;99.90;;;;;;4954123;28;20195;-74
2023/04/26 06:26:00;;;;;;;1999.90;999.90;;;5.90;99.90;;;;;;4954358;29;20642;-75
2023/04/26 06:28:26;;;;;;;1999.90;999.90;;;6.00;99.90;;;;;;4937832;29;20442;-73
2023/04/26 06:30:51;;;;;;;1999.90;999.90;;;6.20;99.90;;;;;;4953930;29;20171;-72
2023/04/26 06:33:17;;;;;;;1999.90;999.90;;;6.10;99.90;;;;;;4953831;28;20242;-72
2023/04/26 06:35:42;;;;;;;1999.90;999.90;;;6.20;99.90;;;;;;4954204;29;20203;-74
2023/04/26 06:38:08;;;;;;;1999.90;999.90;;;6.40;99.90;;;;;;4954266;29;20592;-73
2023/04/26 06:40:37;;;;;;;1999.90;999.90;;;6.60;99.90;;;;;;4954301;29;20190;-72
2023/04/26 06:43:03;;;;;;;1999.90;999.90;;;6.80;99.90;;;;;;4953981;28;20201;-73
2023/04/26 06:45:28;;;;;;;1999.90;999.90;;;6.90;99.90;;;;;;4953928;29;21047;-73
2023/04/26 06:47:54;;;;;;;1999.90;999.90;;;6.90;99.90;;;;;;4953946;29;20242;-72
2023/04/26 06:50:20;;;;;;;1999.90;999.90;;;6.90;99.90;;;;;;4954003;29;20183;-75
2023/04/26 06:52:45;;;;;;;1999.90;999.90;;;7.00;99.90;;;;;;4953845;28;20218;-74
2023/04/26 06:55:11;;;;;;;1999.90;999.90;;;7.20;99.90;;;;;;4954026;29;20684;-73
2023/04/26 06:57:37;;;;;;;1999.90;999.90;;;7.30;99.90;;;;;;4954157;29;20263;-73
2023/04/26 07:00:03;;;;;;;1999.90;999.90;;;7.40;99.90;;;;;;4954251;29;20190;-75
2023/04/26 07:02:30;;;;;;;1999.90;999.90;;;7.50;99.90;;;;;;4953895;28;20437;-72
2023/04/26 07:04:56;;;;;;;1999.90;999.90;;;7.60;99.90;;;;;;4953906;29;20479;-72
2023/04/26 07:07:22;;;;;;;1999.90;999.90;;;7.70;99.90;;;;;;4953712;29;20416;-73
2023/04/26 07:09:47;;;;;;;1999.90;999.90;;;7.80;99.90;;;;;;4953718;29;20411;-73
2023/04/26 07:12:13;;;;;;;1999.90;999.90;;;7.90;99.90;;;;;;4953151;28;20582;-73
2023/04/26 07:14:40;;;;;;;1999.90;999.90;;;8.00;99.90;;;;;;4953838;29;20185;-72
2023/04/26 07:17:09;;;;;;;1999.90;999.90;;;8.10;99.90;;;;;;4953996;28;20173;-74
2023/04/26 07:19:35;;;;;;;1999.90;999.90;;;8.40;99.90;;;;;;4960033;29;20458;-75
2023/04/26 07:22:01;;;;;;;1999.90;999.90;;;8.30;99.90;;;;;;4958756;28;20417;-75
2023/04/26 07:24:27;;;;;;;1999.90;999.90;;;8.50;99.90;;;;;;4941599;29;20429;-72
2023/04/26 07:26:52;;;;;;;1999.90;999.90;;;8.60;99.90;;;;;;4959468;29;20537;-73
2023/04/26 07:29:18;;;;;;;1999.90;999.90;;;8.40;99.90;;;;;;4957809;29;20168;-75
2023/04/26 07:31:44;;;;;;;1999.90;999.90;;;8.40;99.90;;;;;;4958396;29;20177;-72
2023/04/26 07:34:10;;;;;;;1999.90;999.90;;;8.30;99.90;;;;;;4957317;28;20221;-74
2023/04/26 07:36:36;;;;;;;1999.90;999.90;;;8.50;99.90;;;;;;4939808;29;20470;-74
2023/04/26 07:39:04;;;;;;;1999.90;999.90;;;8.50;99.90;;;;;;4957177;29;20172;-72
2023/04/26 07:41:30;;;;;;;1999.90;999.90;;;8.50;99.90;;;;;;4957497;29;20597;-74
2023/04/26 07:43:55;;;;;;;1999.90;999.90;;;8.60;99.90;;;;;;4958831;28;20486;-75
2023/04/26 07:46:21;;;;;;;1999.90;999.90;;;8.60;99.90;;;;;;4958963;29;20456;-74
2023/04/26 07:48:46;;;;;;;1999.90;999.90;;;8.60;99.90;;;;;;4957705;29;20174;-75
2023/04/26 07:51:12;;;;;;;1999.90;999.90;;;8.50;99.90;;;;;;4957186;29;20173;-75
2023/04/26 07:53:39;;;;;;;1999.90;999.90;;;8.80;99.90;;;;;;4959654;28;20333;-75
2023/04/26 07:56:08;;;;;;;1999.90;999.90;;;8.60;99.90;;;;;;4957968;29;20500;-73
2023/04/26 07:58:40;;;;;;;1999.90;999.90;;;8.50;99.90;;;;;;4957014;29;20824;-73
2023/04/26 08:01:06;;;;;;;1999.90;999.90;;;8.60;99.90;;;;;;4939918;29;20508;-72
2023/04/26 08:03:32;;;;;;;1999.90;999.90;;;8.70;99.90;;;;;;4957047;28;20966;-75
2023/04/26 08:05:58;;;;;;;1999.90;999.90;;;8.90;99.90;;;;;;4957864;29;20200;-73
2023/04/26 08:08:25;;;;;;;1999.90;999.90;;;9.10;99.90;;;;;;4956460;29;20251;-74
2023/04/26 08:10:52;;;;;;;1999.90;999.90;;;9.20;99.90;;;;;;4956793;29;20756;-72
2023/04/26 08:13:17;;;;;;;1999.90;999.90;;;9.40;99.90;;;;;;5006121;23;20499;-76
2023/04/26 08:15:43;;;;;;;1999.90;999.90;;;9.50;99.90;;;;;;4975714;28;20805;-76
2023/04/26 08:18:08;;;;;;;1999.90;999.90;;;9.70;99.90;;;;;;4975691;28;20178;-76
2023/04/26 08:20:34;;;;;;;1999.90;999.90;;;9.50;99.90;;;;;;4975721;28;20170;-76
2023/04/26 08:23:00;;;;;;;1999.90;999.90;;;9.70;99.90;;;;;;4975336;28;20261;-76
2023/04/26 08:25:26;;;;;;;1999.90;999.90;;;9.90;99.90;;;;;;4975469;28;20197;-76
2023/04/26 08:27:51;;;;;;;1999.90;999.90;;;10.00;99.90;;;;;;4974545;28;20452;-76
2023/04/26 08:30:18;;;;;;;1999.90;999.90;;;9.90;99.90;;;;;;4983537;28;20183;-78
2023/04/26 08:32:44;;;;;;;1999.90;999.90;;;10.00;99.90;;;;;;4991459;28;20224;-77
2023/04/26 08:35:10;;;;;;;1999.90;999.90;;;10.10;99.90;;;;;;4993799;28;20444;-77
2023/04/26 08:37:36;;;;;;;1999.90;999.90;;;9.90;99.90;;;;;;4997538;28;20444;-77
2023/04/26 08:40:04;;;;;;;1999.90;999.90;;;9.50;99.90;;;;;;4997311;28;21217;-77
2023/04/26 08:42:30;;;;;;;1999.90;999.90;;;9.70;99.90;;;;;;4994458;28;20439;-77
2023/04/26 08:45:00;;;;;;;1999.90;999.90;;;9.90;99.90;;;;;;4995962;28;20460;-77
2023/04/26 08:48:01;;;;;;;1999.90;999.90;;;10.40;99.90;;;;;;4999207;28;20426;-77
2023/04/26 08:50:28;;;;;;;1999.90;999.90;;;10.50;99.90;;;;;;4993778;28;20420;-76
2023/04/26 08:52:54;;;;;;;1999.90;999.90;;;10.50;99.90;;;;;;4988748;28;20786;-77
2023/04/26 08:55:20;;;;;;;1999.90;999.90;;;10.60;99.90;;;;;;4990191;28;20431;-78
2023/04/26 08:57:48;;;;;;;1999.90;999.90;;;10.60;99.90;;;;;;4991451;28;21230;-75
2023/04/26 09:00:15;;;;;;;1999.90;999.90;;;10.70;99.90;;;;;;4989799;28;20423;-76
2023/04/26 09:02:51;;;;;;;1999.90;999.90;;;10.70;99.90;;;;;;4990221;28;20436;-75
2023/04/26 09:05:22;;;;;;;1999.90;999.90;;;10.90;99.90;;;;;;4976385;28;20974;-76
2023/04/26 09:07:49;;;;;;;1999.90;999.90;;;11.10;99.90;;;;;;4969878;28;20464;-76
2023/04/26 09:10:20;;;;;;;1999.90;999.90;;;11.40;99.90;;;;;;4966476;28;20504;-75
2023/04/26 09:12:46;;;;;;;1999.90;999.90;;;11.50;99.90;;;;;;4968912;28;20442;-76
2023/04/26 09:15:14;;;;;;;1999.90;999.90;;;11.40;99.90;;;;;;4969916;28;20479;-76
2023/04/26 09:17:43;;;;;;;1999.90;999.90;;;11.40;99.90;;;;;;4968444;28;20426;-77
2023/04/26 09:20:25;;;;;;;1999.90;999.90;;;11.10;99.90;;;;;;4968979;28;20422;-76
2023/04/26 09:23:08;;;;;;;1999.90;999.90;;;11.00;99.90;;;;;;4968404;28;20444;-76
2023/04/26 09:25:35;;;;;;;1999.90;999.90;;;10.90;99.90;;;;;;4969149;28;21196;-76
2023/04/26 09:28:02;;;;;;;1999.90;999.90;;;10.90;99.90;;;;;;4969315;28;20417;-76
2023/04/26 09:30:28;;;;;;;1999.90;999.90;;;10.90;99.90;;;;;;4968541;28;20482;-76
2023/04/26 09:33:02;;;;;;;1999.90;999.90;;;11.00;99.90;;;;;;4969178;28;20429;-76
2023/04/26 09:35:35;;;;;;;1999.90;999.90;;;11.00;99.90;;;;;;4968788;28;20420;-77
2023/04/26 09:38:09;;;;;;;1999.90;999.90;;;11.00;99.90;;;;;;4967879;28;20432;-77
2023/04/26 09:40:37;;;;;;;1999.90;999.90;;;10.90;99.90;;;;;;4968404;28;20789;-77
2023/04/26 09:43:06;;;;;;;1999.90;999.90;;;10.90;99.90;;;;;;4968446;28;20445;-76
2023/04/26 09:45:43;;;;;;;1999.90;999.90;;;11.10;99.90;;;;;;4968487;28;20453;-76
2023/04/26 09:48:15;;;;;;;1999.90;999.90;;;11.40;99.90;;;;;;4969054;28;20533;-76
2023/04/26 09:50:43;;;;;;;1999.90;999.90;;;11.10;99.90;;;;;;4968639;28;21222;-77
2023/04/26 09:53:09;;;;;;;1999.90;999.90;;;10.70;99.90;;;;;;4967652;28;20862;-77
2023/04/26 09:55:35;;;;;;;1999.90;999.90;;;10.60;99.90;;;;;;4974205;28;20421;-76
2023/04/26 09:58:08;;;;;;;1999.90;999.90;;;10.80;99.90;;;;;;4971368;28;20456;-79
2023/04/26 10:00:36;;;;;;;1999.90;999.90;;;11.10;99.90;;;;;;4973912;28;20556;-76
2023/04/26 10:03:02;;;;;;;1999.90;999.90;;;11.10;99.90;;;;;;4971555;28;20445;-78
2023/04/26 10:05:30;;;;;;;1999.90;999.90;;;11.10;99.90;;;;;;4974341;28;20465;-77
2023/04/26 10:07:56;;;;;;;1999.90;999.90;;;11.10;99.90;;;;;;4971458;28;20409;-76
2023/04/26 10:10:22;;;;;;;1999.90;999.90;;;11.30;99.90;;;;;;4970774;28;20934;-75
2023/04/26 10:12:48;;;;;;;1999.90;999.90;;;11.50;99.90;;;;;;4974605;28;20441;-80
2023/04/26 10:15:14;;;;;;;1999.90;999.90;;;11.70;99.90;;;;;;4972247;28;20179;-76
2023/04/26 10:17:41;;;;;;;1999.90;999.90;;;11.70;99.90;;;;;;4970872;28;20223;-77
2023/04/26 10:20:11;;;;;;;1999.90;999.90;;;11.50;99.90;;;;;;4969368;28;20677;-77
2023/04/26 10:22:49;;;;;;;1999.90;999.90;;;12.00;99.90;;;;;;4969666;28;20437;-77
2023/04/26 10:25:14;;;;;;;1999.90;999.90;;;12.10;99.90;;;;;;4969722;28;20511;-76
2023/04/26 10:27:43;;;;;;;1999.90;999.90;;;12.30;99.20;;;;;;4967511;28;20465;-76
2023/04/26 10:30:11;;;;;;;1999.90;999.90;;;12.60;98.30;;;;;;4970658;28;20610;-76
2023/04/26 10:32:52;;;;;;;1999.90;999.90;;;12.80;95.90;;;;;;4969152;28;20445;-75
2023/04/26 10:35:18;;;;;;;1999.90;999.90;;;12.20;92.90;;;;;;4970680;28;20446;-76
2023/04/26 10:37:59;;;;;;;1999.90;999.90;;;11.70;93.50;;;;;;4969679;28;20943;-76
2023/04/26 10:40:32;;;;;;;1999.90;999.90;;;11.70;92.70;;;;;;4970584;28;21048;-79
2023/04/26 10:43:10;;;;;;;1999.90;999.90;;;12.00;92.50;;;;;;4968636;28;21033;-76
2023/04/26 10:45:37;;;;;;;1999.90;999.90;;;12.10;88.90;;;;;;4967117;28;20883;-78
2023/04/26 10:48:27;;;;;;;1999.90;999.90;;;11.90;88.80;;;;;;4971331;28;20789;-76
2023/04/26 10:53:24;;;;;;;1999.90;999.90;;;11.80;86.30;;;;;;4971509;28;20480;-77
2023/04/26 10:55:51;;;;;;;1999.90;999.90;;;12.10;87.50;;;;;;4973390;28;20429;-76
2023/04/26 10:58:31;;;;;;;1999.90;999.90;;;12.50;92.80;;;;;;4971717;28;20411;-76
2023/04/26 11:01:12;;;;;;;1999.90;999.90;;;12.70;81.10;;;;;;4971390;28;20480;-77
2023/04/26 11:03:39;;;;;;;1999.90;999.90;;;12.80;86.10;;;;;;4972838;28;20474;-77
2023/04/26 11:06:06;;;;;;;1999.90;999.90;;;13.10;86.80;;;;;;4970901;28;20460;-76
2023/04/26 11:08:33;;;;;;;1999.90;999.90;;;13.60;84.50;;;;;;4971103;28;20431;-76
2023/04/26 11:11:01;;;;;;;1999.90;999.90;;;13.90;76.90;;;;;;4972001;28;20417;-76
2023/04/26 11:13:30;;;;;;;1999.90;999.90;;;14.10;69.50;;;;;;4971467;28;21133;-77
2023/04/26 11:16:03;;;;;;;1999.90;999.90;;;14.40;71.90;;;;;;4971327;28;20783;-77
2023/04/26 11:18:30;;;;;;;1999.90;999.90;;;14.70;67.40;;;;;;4972721;28;20430;-76
2023/04/26 11:20:57;;;;;;;1999.90;999.90;;;15.00;69.10;;;;;;4972294;28;20428;-76
2023/04/26 11:23:25;;;;;;;1999.90;999.90;;;15.20;57.60;;;;;;4971013;28;20458;-76
2023/04/26 11:25:50;;;;;;;1999.90;999.90;;;15.40;51.60;;;;;;4969315;28;20511;-76
2023/04/26 11:28:17;;;;;;;1999.90;999.90;;;15.70;55.70;;;;;;4971626;28;20479;-76
2023/04/26 11:30:43;;;;;;;1999.90;999.90;;;15.80;55.90;;;;;;4969706;28;20219;-75
2023/04/26 11:33:19;;;;;;;1999.90;999.90;;;15.90;50.50;;;;;;4970667;28;20461;-76
2023/04/26 11:35:53;;;;;;;1999.90;999.90;;;16.00;48.40;;;;;;4970979;28;20297;-76
2023/04/26 11:38:25;;;;;;;1999.90;999.90;;;15.40;45.30;;;;;;4970984;28;20427;-76
2023/04/26 11:40:59;;;;;;;1999.90;999.90;;;15.00;44.00;;;;;;4970994;28;20452;-76
2023/04/26 11:43:38;;;;;;;1999.90;999.90;;;15.10;45.60;;;;;;4970736;28;20448;-76
2023/04/26 11:46:08;;;;;;;1999.90;999.90;;;15.40;41.00;;;;;;4970715;28;21259;-76
2023/04/26 11:48:36;;;;;;;1999.90;999.90;;;15.40;40.60;;;;;;4970573;28;20436;-76
2023/04/26 11:51:04;;;;;;;1999.90;999.90;;;15.60;41.60;;;;;;4968946;28;20420;-76
2023/04/26 11:53:42;;;;;;;1999.90;999.90;;;15.80;38.50;;;;;;4971452;28;20470;-76
2023/04/26 11:56:17;;;;;;;1999.90;999.90;;;15.80;32.40;;;;;;4971580;28;21137;-75
2023/04/26 11:58:52;;;;;;;1999.90;999.90;;;15.90;36.00;;;;;;4970153;28;20926;-75
2023/04/26 12:01:23;;;;;;;1999.90;999.90;;;16.20;37.60;;;;;;4971174;28;20423;-75
2023/04/26 12:03:53;;;;;;;1999.90;999.90;;;16.30;37.50;;;;;;4970640;28;20524;-75
2023/04/26 12:06:19;;;;;;;1999.90;999.90;;;16.40;31.50;;;;;;4969571;28;20463;-75
2023/04/26 12:08:50;;;;;;;1999.90;999.90;;;16.20;30.10;;;;;;4970934;28;20443;-76